Cavalier, North Dakota
Current Conditions -  °F | °C
As of 2:15 AM on Thursday 29 Jan 2015 (Local Time) from K2C8 Reporting Station
Overcast Overcast  
Wind Chill:   Ceiling: 2400
Heat Index: 18°   Visibility: 10mi
Dew Point: 12°   Wind: 21mph
Humidity: 79%   Direction: 340°NNW
Pressure: 30.25"   Gusts: 26mph
Location:  48.79°N, 97.62°W
Report Text: K2C8 290815Z AUTO 34018G23KT 10SM SCT017 OVC024 M08/M11 A3025 RMK AO2
Loading
Personal Weather Stations






























Interactive Weather Map New forecast layout! Learn more

10-Day Weather Forecast

Advertisements
Track Severe Weather on mobile